sensor_id;sensor_type;location;lat;lon;timestamp;P1;durP1;ratioP1;P2;durP2;ratioP2
17662;SDS011;8950;56.892;15.090;2023-02-20T00:01:17;5.75;;;2.08;;
17662;SDS011;8950;56.892;15.090;2023-02-20T00:03:46;4.72;;;1.75;;
17662;SDS011;8950;56.892;15.090;2023-02-20T00:06:12;5.25;;;2.42;;
17662;SDS011;8950;56.892;15.090;2023-02-20T00:08:38;5.25;;;2.20;;
17662;SDS011;8950;56.892;15.090;2023-02-20T00:11:05;3.30;;;2.08;;
17662;SDS011;8950;56.892;15.090;2023-02-20T00:13:31;6.47;;;2.20;;
17662;SDS011;8950;56.892;15.090;2023-02-20T00:15:58;7.00;;;2.00;;
17662;SDS011;8950;56.892;15.090;2023-02-20T00:18:24;3.40;;;1.90;;
17662;SDS011;8950;56.892;15.090;2023-02-20T00:20:52;6.40;;;2.13;;
17662;SDS011;8950;56.892;15.090;2023-02-20T00:23:18;4.40;;;1.92;;
17662;SDS011;8950;56.892;15.090;2023-02-20T00:25:45;7.72;;;2.17;;
17662;SDS011;8950;56.892;15.090;2023-02-20T00:28:11;4.05;;;1.80;;
17662;SDS011;8950;56.892;15.090;2023-02-20T00:30:38;5.95;;;2.35;;
17662;SDS011;8950;56.892;15.090;2023-02-20T00:33:04;3.92;;;2.00;;
17662;SDS011;8950;56.892;15.090;2023-02-20T00:35:30;3.75;;;2.20;;
17662;SDS011;8950;56.892;15.090;2023-02-20T00:37:58;6.45;;;1.98;;
17662;SDS011;8950;56.892;15.090;2023-02-20T00:40:25;3.95;;;2.20;;
17662;SDS011;8950;56.892;15.090;2023-02-20T00:42:51;4.82;;;1.75;;
17662;SDS011;8950;56.892;15.090;2023-02-20T00:45:18;5.43;;;2.05;;
17662;SDS011;8950;56.892;15.090;2023-02-20T00:47:44;4.13;;;2.05;;
17662;SDS011;8950;56.892;15.090;2023-02-20T00:50:11;6.78;;;2.38;;
17662;SDS011;8950;56.892;15.090;2023-02-20T00:52:38;3.90;;;1.77;;
17662;SDS011;8950;56.892;15.090;2023-02-20T00:55:06;4.90;;;2.05;;
17662;SDS011;8950;56.892;15.090;2023-02-20T00:57:34;5.80;;;2.22;;
17662;SDS011;8950;56.892;15.090;2023-02-20T01:00:00;3.85;;;2.00;;
17662;SDS011;8950;56.892;15.090;2023-02-20T01:02:27;4.22;;;1.80;;
17662;SDS011;8950;56.892;15.090;2023-02-20T01:04:53;3.85;;;1.80;;
17662;SDS011;8950;56.892;15.090;2023-02-20T01:07:20;5.18;;;2.03;;
17662;SDS011;8950;56.892;15.090;2023-02-20T01:09:47;4.50;;;2.10;;
17662;SDS011;8950;56.892;15.090;2023-02-20T01:12:15;5.07;;;2.15;;
17662;SDS011;8950;56.892;15.090;2023-02-20T01:14:42;5.30;;;2.20;;
17662;SDS011;8950;56.892;15.090;2023-02-20T01:17:08;4.07;;;2.17;;
17662;SDS011;8950;56.892;15.090;2023-02-20T01:19:35;4.57;;;2.13;;
17662;SDS011;8950;56.892;15.090;2023-02-20T01:22:01;4.72;;;1.90;;
17662;SDS011;8950;56.892;15.090;2023-02-20T01:24:30;4.97;;;2.13;;
17662;SDS011;8950;56.892;15.090;2023-02-20T01:26:56;2.50;;;1.67;;
17662;SDS011;8950;56.892;15.090;2023-02-20T01:29:24;4.43;;;2.20;;
17662;SDS011;8950;56.892;15.090;2023-02-20T01:31:50;4.65;;;2.15;;
17662;SDS011;8950;56.892;15.090;2023-02-20T01:34:17;4.32;;;2.03;;
17662;SDS011;8950;56.892;15.090;2023-02-20T01:36:45;3.08;;;1.67;;
17662;SDS011;8950;56.892;15.090;2023-02-20T01:39:11;4.40;;;1.77;;
17662;SDS011;8950;56.892;15.090;2023-02-20T01:41:37;4.50;;;2.00;;
17662;SDS011;8950;56.892;15.090;2023-02-20T01:44:04;3.03;;;1.75;;
17662;SDS011;8950;56.892;15.090;2023-02-20T01:46:45;4.03;;;1.85;;
17662;SDS011;8950;56.892;15.090;2023-02-20T01:49:12;5.18;;;1.95;;
17662;SDS011;8950;56.892;15.090;2023-02-20T01:51:40;4.80;;;1.90;;
17662;SDS011;8950;56.892;15.090;2023-02-20T01:54:08;4.95;;;2.08;;
17662;SDS011;8950;56.892;15.090;2023-02-20T01:56:36;3.10;;;1.85;;
17662;SDS011;8950;56.892;15.090;2023-02-20T01:59:03;4.15;;;1.80;;
17662;SDS011;8950;56.892;15.090;2023-02-20T02:01:31;3.20;;;1.75;;
17662;SDS011;8950;56.892;15.090;2023-02-20T02:04:00;4.47;;;1.77;;
17662;SDS011;8950;56.892;15.090;2023-02-20T02:06:29;4.15;;;1.80;;
17662;SDS011;8950;56.892;15.090;2023-02-20T02:08:58;3.42;;;1.85;;
17662;SDS011;8950;56.892;15.090;2023-02-20T02:11:27;2.95;;;1.70;;
17662;SDS011;8950;56.892;15.090;2023-02-20T02:13:54;3.40;;;1.80;;
17662;SDS011;8950;56.892;15.090;2023-02-20T02:16:22;2.78;;;1.92;;
17662;SDS011;8950;56.892;15.090;2023-02-20T02:18:52;4.05;;;1.90;;
17662;SDS011;8950;56.892;15.090;2023-02-20T02:24:15;5.32;;;1.70;;
17662;SDS011;8950;56.892;15.090;2023-02-20T02:26:59;3.67;;;1.90;;
17662;SDS011;8950;56.892;15.090;2023-02-20T02:29:39;4.50;;;1.63;;
17662;SDS011;8950;56.892;15.090;2023-02-20T02:32:19;2.95;;;1.50;;
17662;SDS011;8950;56.892;15.090;2023-02-20T02:37:41;2.65;;;1.60;;
17662;SDS011;8950;56.892;15.090;2023-02-20T02:40:13;2.83;;;1.60;;
17662;SDS011;8950;56.892;15.090;2023-02-20T02:42:45;4.03;;;1.60;;
17662;SDS011;8950;56.892;15.090;2023-02-20T02:45:15;2.95;;;1.60;;
17662;SDS011;8950;56.892;15.090;2023-02-20T02:47:45;3.38;;;1.63;;
17662;SDS011;8950;56.892;15.090;2023-02-20T02:50:15;2.60;;;1.45;;
17662;SDS011;8950;56.892;15.090;2023-02-20T02:52:43;1.85;;;1.20;;
17662;SDS011;8950;56.892;15.090;2023-02-20T02:55:15;1.55;;;1.38;;
17662;SDS011;8950;56.892;15.090;2023-02-20T02:57:41;1.15;;;1.02;;
17662;SDS011;8950;56.892;15.090;2023-02-20T03:00:08;2.80;;;1.55;;
17662;SDS011;8950;56.892;15.090;2023-02-20T03:02:36;2.28;;;1.50;;
17662;SDS011;8950;56.892;15.090;2023-02-20T03:05:05;2.28;;;1.40;;
17662;SDS011;8950;56.892;15.090;2023-02-20T03:07:33;1.80;;;1.35;;
17662;SDS011;8950;56.892;15.090;2023-02-20T03:10:04;1.92;;;1.23;;
17662;SDS011;8950;56.892;15.090;2023-02-20T03:12:30;1.30;;;1.20;;
17662;SDS011;8950;56.892;15.090;2023-02-20T03:14:58;1.40;;;1.20;;
17662;SDS011;8950;56.892;15.090;2023-02-20T03:17:43;1.23;;;1.10;;
17662;SDS011;8950;56.892;15.090;2023-02-20T03:20:13;1.52;;;1.00;;
17662;SDS011;8950;56.892;15.090;2023-02-20T03:22:41;1.90;;;1.10;;
17662;SDS011;8950;56.892;15.090;2023-02-20T03:25:10;1.27;;;1.10;;
17662;SDS011;8950;56.892;15.090;2023-02-20T03:27:39;1.00;;;1.00;;
17662;SDS011;8950;56.892;15.090;2023-02-20T03:30:08;1.38;;;1.27;;
17662;SDS011;8950;56.892;15.090;2023-02-20T03:32:37;1.27;;;1.10;;
17662;SDS011;8950;56.892;15.090;2023-02-20T03:35:22;1.48;;;1.13;;
17662;SDS011;8950;56.892;15.090;2023-02-20T03:38:07;1.00;;;0.95;;
17662;SDS011;8950;56.892;15.090;2023-02-20T03:40:54;1.35;;;1.25;;
17662;SDS011;8950;56.892;15.090;2023-02-20T03:43:39;1.38;;;1.13;;
17662;SDS011;8950;56.892;15.090;2023-02-20T03:46:07;1.23;;;1.10;;
17662;SDS011;8950;56.892;15.090;2023-02-20T03:48:37;1.15;;;1.05;;
17662;SDS011;8950;56.892;15.090;2023-02-20T03:51:06;1.00;;;1.00;;
17662;SDS011;8950;56.892;15.090;2023-02-20T03:53:32;1.15;;;1.08;;
17662;SDS011;8950;56.892;15.090;2023-02-20T03:56:02;1.02;;;1.00;;
17662;SDS011;8950;56.892;15.090;2023-02-20T03:58:29;1.00;;;1.00;;
17662;SDS011;8950;56.892;15.090;2023-02-20T04:00:57;0.90;;;0.90;;
17662;SDS011;8950;56.892;15.090;2023-02-20T04:03:27;1.00;;;1.00;;
17662;SDS011;8950;56.892;15.090;2023-02-20T04:05:54;0.95;;;0.95;;
17662;SDS011;8950;56.892;15.090;2023-02-20T04:08:23;1.15;;;0.90;;
17662;SDS011;8950;56.892;15.090;2023-02-20T04:10:56;0.80;;;0.80;;
17662;SDS011;8950;56.892;15.090;2023-02-20T04:13:25;0.80;;;0.80;;
17662;SDS011;8950;56.892;15.090;2023-02-20T04:15:51;0.93;;;0.93;;
17662;SDS011;8950;56.892;15.090;2023-02-20T04:18:19;1.20;;;1.10;;
17662;SDS011;8950;56.892;15.090;2023-02-20T04:20:46;0.90;;;0.90;;
17662;SDS011;8950;56.892;15.090;2023-02-20T04:23:15;0.90;;;0.90;;
17662;SDS011;8950;56.892;15.090;2023-02-20T04:25:42;0.80;;;0.80;;
17662;SDS011;8950;56.892;15.090;2023-02-20T04:28:10;0.75;;;0.75;;
17662;SDS011;8950;56.892;15.090;2023-02-20T04:30:38;0.90;;;0.90;;
17662;SDS011;8950;56.892;15.090;2023-02-20T04:33:05;0.90;;;0.90;;
17662;SDS011;8950;56.892;15.090;2023-02-20T04:35:31;1.00;;;0.90;;
17662;SDS011;8950;56.892;15.090;2023-02-20T04:37:58;0.98;;;0.80;;
17662;SDS011;8950;56.892;15.090;2023-02-20T04:40:24;0.80;;;0.80;;
17662;SDS011;8950;56.892;15.090;2023-02-20T04:42:50;0.80;;;0.80;;
17662;SDS011;8950;56.892;15.090;2023-02-20T04:45:17;0.93;;;0.93;;
17662;SDS011;8950;56.892;15.090;2023-02-20T04:47:45;0.90;;;0.90;;
17662;SDS011;8950;56.892;15.090;2023-02-20T04:50:13;0.80;;;0.80;;
17662;SDS011;8950;56.892;15.090;2023-02-20T04:52:41;0.80;;;0.80;;
17662;SDS011;8950;56.892;15.090;2023-02-20T04:55:08;0.60;;;0.60;;
17662;SDS011;8950;56.892;15.090;2023-02-20T04:57:34;0.68;;;0.68;;
17662;SDS011;8950;56.892;15.090;2023-02-20T05:00:00;0.70;;;0.70;;
17662;SDS011;8950;56.892;15.090;2023-02-20T05:02:27;0.70;;;0.70;;
17662;SDS011;8950;56.892;15.090;2023-02-20T05:04:55;0.80;;;0.80;;
17662;SDS011;8950;56.892;15.090;2023-02-20T05:07:21;0.73;;;0.73;;
17662;SDS011;8950;56.892;15.090;2023-02-20T05:09:48;0.80;;;0.80;;
17662;SDS011;8950;56.892;15.090;2023-02-20T05:12:14;0.70;;;0.70;;
17662;SDS011;8950;56.892;15.090;2023-02-20T05:14:41;0.77;;;0.77;;
17662;SDS011;8950;56.892;15.090;2023-02-20T05:17:07;0.70;;;0.70;;
17662;SDS011;8950;56.892;15.090;2023-02-20T05:19:34;0.70;;;0.70;;
17662;SDS011;8950;56.892;15.090;2023-02-20T05:22:01;0.77;;;0.77;;
17662;SDS011;8950;56.892;15.090;2023-02-20T05:24:46;0.63;;;0.63;;
17662;SDS011;8950;56.892;15.090;2023-02-20T05:27:12;0.70;;;0.70;;
17662;SDS011;8950;56.892;15.090;2023-02-20T05:29:43;0.80;;;0.80;;
17662;SDS011;8950;56.892;15.090;2023-02-20T05:32:09;0.70;;;0.70;;
17662;SDS011;8950;56.892;15.090;2023-02-20T05:34:36;0.70;;;0.70;;
17662;SDS011;8950;56.892;15.090;2023-02-20T05:37:04;0.88;;;0.88;;
17662;SDS011;8950;56.892;15.090;2023-02-20T05:39:30;0.70;;;0.70;;
17662;SDS011;8950;56.892;15.090;2023-02-20T05:41:56;0.70;;;0.70;;
17662;SDS011;8950;56.892;15.090;2023-02-20T05:44:23;0.60;;;0.60;;
17662;SDS011;8950;56.892;15.090;2023-02-20T05:46:49;0.60;;;0.60;;
17662;SDS011;8950;56.892;15.090;2023-02-20T05:49:18;0.80;;;0.80;;
17662;SDS011;8950;56.892;15.090;2023-02-20T05:51:44;0.70;;;0.70;;
17662;SDS011;8950;56.892;15.090;2023-02-20T05:54:12;0.80;;;0.80;;
17662;SDS011;8950;56.892;15.090;2023-02-20T05:56:39;0.65;;;0.65;;
17662;SDS011;8950;56.892;15.090;2023-02-20T05:59:06;0.70;;;0.70;;
17662;SDS011;8950;56.892;15.090;2023-02-20T06:01:33;0.70;;;0.70;;
17662;SDS011;8950;56.892;15.090;2023-02-20T06:03:59;0.68;;;0.68;;
17662;SDS011;8950;56.892;15.090;2023-02-20T06:06:30;0.70;;;0.70;;
17662;SDS011;8950;56.892;15.090;2023-02-20T06:08:56;0.77;;;0.77;;
17662;SDS011;8950;56.892;15.090;2023-02-20T06:11:24;0.82;;;0.70;;
17662;SDS011;8950;56.892;15.090;2023-02-20T06:13:51;0.60;;;0.60;;
17662;SDS011;8950;56.892;15.090;2023-02-20T06:16:20;0.70;;;0.70;;
17662;SDS011;8950;56.892;15.090;2023-02-20T06:18:47;0.60;;;0.60;;
17662;SDS011;8950;56.892;15.090;2023-02-20T06:21:13;0.65;;;0.65;;
17662;SDS011;8950;56.892;15.090;2023-02-20T06:23:42;0.80;;;0.80;;
17662;SDS011;8950;56.892;15.090;2023-02-20T06:26:10;0.70;;;0.70;;
17662;SDS011;8950;56.892;15.090;2023-02-20T06:28:38;0.70;;;0.70;;
17662;SDS011;8950;56.892;15.090;2023-02-20T06:31:04;0.70;;;0.70;;
17662;SDS011;8950;56.892;15.090;2023-02-20T06:33:31;0.75;;;0.75;;
17662;SDS011;8950;56.892;15.090;2023-02-20T06:35:57;0.80;;;0.80;;
17662;SDS011;8950;56.892;15.090;2023-02-20T06:38:24;0.70;;;0.70;;
17662;SDS011;8950;56.892;15.090;2023-02-20T06:40:50;1.10;;;0.70;;
17662;SDS011;8950;56.892;15.090;2023-02-20T06:43:17;0.88;;;0.88;;
17662;SDS011;8950;56.892;15.090;2023-02-20T06:45:45;0.65;;;0.65;;
17662;SDS011;8950;56.892;15.090;2023-02-20T06:48:11;0.60;;;0.60;;
17662;SDS011;8950;56.892;15.090;2023-02-20T06:50:39;0.77;;;0.77;;
17662;SDS011;8950;56.892;15.090;2023-02-20T06:53:05;0.60;;;0.60;;
17662;SDS011;8950;56.892;15.090;2023-02-20T06:55:32;0.80;;;0.80;;
17662;SDS011;8950;56.892;15.090;2023-02-20T06:57:58;0.70;;;0.70;;
17662;SDS011;8950;56.892;15.090;2023-02-20T07:00:25;0.65;;;0.65;;
17662;SDS011;8950;56.892;15.090;2023-02-20T07:02:53;0.60;;;0.60;;
17662;SDS011;8950;56.892;15.090;2023-02-20T07:05:19;0.60;;;0.60;;
17662;SDS011;8950;56.892;15.090;2023-02-20T07:07:46;0.70;;;0.70;;
17662;SDS011;8950;56.892;15.090;2023-02-20T07:10:12;0.65;;;0.65;;
17662;SDS011;8950;56.892;15.090;2023-02-20T07:12:39;0.70;;;0.70;;
17662;SDS011;8950;56.892;15.090;2023-02-20T07:15:06;1.05;;;0.80;;
17662;SDS011;8950;56.892;15.090;2023-02-20T07:17:32;0.80;;;0.80;;
17662;SDS011;8950;56.892;15.090;2023-02-20T07:20:00;0.70;;;0.70;;
17662;SDS011;8950;56.892;15.090;2023-02-20T07:22:26;1.08;;;0.98;;
17662;SDS011;8950;56.892;15.090;2023-02-20T07:24:53;1.13;;;0.90;;
17662;SDS011;8950;56.892;15.090;2023-02-20T07:27:20;0.80;;;0.80;;
17662;SDS011;8950;56.892;15.090;2023-02-20T07:29:46;0.80;;;0.80;;
17662;SDS011;8950;56.892;15.090;2023-02-20T07:32:13;1.00;;;1.00;;
17662;SDS011;8950;56.892;15.090;2023-02-20T07:34:44;0.80;;;0.80;;
17662;SDS011;8950;56.892;15.090;2023-02-20T07:37:12;0.90;;;0.90;;
17662;SDS011;8950;56.892;15.090;2023-02-20T07:39:38;1.13;;;1.02;;
17662;SDS011;8950;56.892;15.090;2023-02-20T07:42:05;0.98;;;0.95;;
17662;SDS011;8950;56.892;15.090;2023-02-20T07:44:31;1.17;;;1.00;;
17662;SDS011;8950;56.892;15.090;2023-02-20T07:46:59;1.10;;;1.00;;
17662;SDS011;8950;56.892;15.090;2023-02-20T07:49:25;0.80;;;0.80;;
17662;SDS011;8950;56.892;15.090;2023-02-20T07:51:51;0.90;;;0.90;;
17662;SDS011;8950;56.892;15.090;2023-02-20T07:54:19;0.90;;;0.90;;
17662;SDS011;8950;56.892;15.090;2023-02-20T07:56:46;1.13;;;1.13;;
17662;SDS011;8950;56.892;15.090;2023-02-20T07:59:12;0.93;;;0.93;;
17662;SDS011;8950;56.892;15.090;2023-02-20T08:01:39;1.05;;;1.00;;
17662;SDS011;8950;56.892;15.090;2023-02-20T08:04:05;0.80;;;0.80;;
17662;SDS011;8950;56.892;15.090;2023-02-20T08:06:33;0.90;;;0.90;;
17662;SDS011;8950;56.892;15.090;2023-02-20T08:08:59;1.20;;;1.10;;
17662;SDS011;8950;56.892;15.090;2023-02-20T08:11:31;0.90;;;0.90;;
17662;SDS011;8950;56.892;15.090;2023-02-20T08:13:57;0.95;;;0.90;;
17662;SDS011;8950;56.892;15.090;2023-02-20T08:16:24;0.90;;;0.90;;
17662;SDS011;8950;56.892;15.090;2023-02-20T08:18:50;0.80;;;0.80;;
17662;SDS011;8950;56.892;15.090;2023-02-20T08:21:17;0.90;;;0.90;;
17662;SDS011;8950;56.892;15.090;2023-02-20T08:23:44;0.90;;;0.90;;
17662;SDS011;8950;56.892;15.090;2023-02-20T08:26:10;0.80;;;0.80;;
17662;SDS011;8950;56.892;15.090;2023-02-20T08:28:38;1.00;;;1.00;;
17662;SDS011;8950;56.892;15.090;2023-02-20T08:31:04;0.80;;;0.80;;
17662;SDS011;8950;56.892;15.090;2023-02-20T08:33:31;0.90;;;0.90;;
17662;SDS011;8950;56.892;15.090;2023-02-20T08:35:58;0.88;;;0.88;;
17662;SDS011;8950;56.892;15.090;2023-02-20T08:38:26;1.52;;;0.90;;
17662;SDS011;8950;56.892;15.090;2023-02-20T08:40:53;0.80;;;0.80;;
17662;SDS011;8950;56.892;15.090;2023-02-20T08:43:19;0.77;;;0.77;;
17662;SDS011;8950;56.892;15.090;2023-02-20T08:45:47;1.10;;;1.10;;
17662;SDS011;8950;56.892;15.090;2023-02-20T08:48:13;1.00;;;1.00;;
17662;SDS011;8950;56.892;15.090;2023-02-20T08:50:40;1.67;;;1.00;;
17662;SDS011;8950;56.892;15.090;2023-02-20T08:53:06;0.80;;;0.80;;
17662;SDS011;8950;56.892;15.090;2023-02-20T08:55:33;0.70;;;0.70;;
17662;SDS011;8950;56.892;15.090;2023-02-20T08:57:59;1.08;;;0.93;;
17662;SDS011;8950;56.892;15.090;2023-02-20T09:00:25;1.05;;;1.05;;
17662;SDS011;8950;56.892;15.090;2023-02-20T09:02:53;0.82;;;0.82;;
17662;SDS011;8950;56.892;15.090;2023-02-20T09:05:20;0.80;;;0.80;;
17662;SDS011;8950;56.892;15.090;2023-02-20T09:07:46;0.80;;;0.80;;
17662;SDS011;8950;56.892;15.090;2023-02-20T09:10:13;0.80;;;0.80;;
17662;SDS011;8950;56.892;15.090;2023-02-20T09:12:39;0.80;;;0.80;;
17662;SDS011;8950;56.892;15.090;2023-02-20T09:15:07;0.90;;;0.90;;
17662;SDS011;8950;56.892;15.090;2023-02-20T09:17:33;1.15;;;0.90;;
17662;SDS011;8950;56.892;15.090;2023-02-20T09:20:01;1.08;;;1.05;;
17662;SDS011;8950;56.892;15.090;2023-02-20T09:22:27;1.20;;;1.10;;
17662;SDS011;8950;56.892;15.090;2023-02-20T09:24:54;0.80;;;0.80;;
17662;SDS011;8950;56.892;15.090;2023-02-20T09:27:20;0.82;;;0.82;;
17662;SDS011;8950;56.892;15.090;2023-02-20T09:29:47;0.90;;;0.90;;
17662;SDS011;8950;56.892;15.090;2023-02-20T09:32:13;1.10;;;1.10;;
17662;SDS011;8950;56.892;15.090;2023-02-20T09:34:40;1.85;;;1.30;;
17662;SDS011;8950;56.892;15.090;2023-02-20T09:37:08;0.90;;;0.90;;
17662;SDS011;8950;56.892;15.090;2023-02-20T09:39:34;1.00;;;1.00;;
17662;SDS011;8950;56.892;15.090;2023-02-20T09:42:06;1.10;;;0.98;;
17662;SDS011;8950;56.892;15.090;2023-02-20T09:44:38;1.30;;;1.05;;
17662;SDS011;8950;56.892;15.090;2023-02-20T09:47:07;1.48;;;1.10;;
17662;SDS011;8950;56.892;15.090;2023-02-20T09:49:44;1.48;;;1.20;;
17662;SDS011;8950;56.892;15.090;2023-02-20T09:52:13;1.50;;;1.40;;
17662;SDS011;8950;56.892;15.090;2023-02-20T09:54:42;1.10;;;1.00;;
17662;SDS011;8950;56.892;15.090;2023-02-20T09:57:11;1.88;;;1.30;;
17662;SDS011;8950;56.892;15.090;2023-02-20T09:59:39;1.20;;;1.10;;
17662;SDS011;8950;56.892;15.090;2023-02-20T10:02:10;1.30;;;1.20;;
17662;SDS011;8950;56.892;15.090;2023-02-20T10:04:38;1.00;;;1.00;;
17662;SDS011;8950;56.892;15.090;2023-02-20T10:07:08;1.13;;;1.10;;
17662;SDS011;8950;56.892;15.090;2023-02-20T10:09:40;1.63;;;1.30;;
17662;SDS011;8950;56.892;15.090;2023-02-20T10:12:09;2.35;;;1.25;;
17662;SDS011;8950;56.892;15.090;2023-02-20T10:14:52;2.25;;;1.42;;
17662;SDS011;8950;56.892;15.090;2023-02-20T10:17:22;1.40;;;1.10;;
17662;SDS011;8950;56.892;15.090;2023-02-20T10:19:55;1.45;;;1.15;;
17662;SDS011;8950;56.892;15.090;2023-02-20T10:22:24;1.50;;;1.20;;
17662;SDS011;8950;56.892;15.090;2023-02-20T10:24:57;1.88;;;1.23;;
17662;SDS011;8950;56.892;15.090;2023-02-20T10:27:29;1.95;;;1.20;;
17662;SDS011;8950;56.892;15.090;2023-02-20T10:29:56;1.30;;;1.20;;
17662;SDS011;8950;56.892;15.090;2023-02-20T10:32:24;2.53;;;1.50;;
17662;SDS011;8950;56.892;15.090;2023-02-20T10:34:53;2.10;;;1.48;;
17662;SDS011;8950;56.892;15.090;2023-02-20T10:37:23;1.33;;;1.13;;
17662;SDS011;8950;56.892;15.090;2023-02-20T10:39:51;2.55;;;1.80;;
17662;SDS011;8950;56.892;15.090;2023-02-20T10:42:22;4.10;;;2.10;;
17662;SDS011;8950;56.892;15.090;2023-02-20T10:44:55;3.15;;;1.90;;
17662;SDS011;8950;56.892;15.090;2023-02-20T10:47:24;4.68;;;2.10;;
17662;SDS011;8950;56.892;15.090;2023-02-20T10:49:55;3.30;;;2.10;;
17662;SDS011;8950;56.892;15.090;2023-02-20T10:52:24;2.70;;;1.98;;
17662;SDS011;8950;56.892;15.090;2023-02-20T10:54:52;4.63;;;2.13;;
17662;SDS011;8950;56.892;15.090;2023-02-20T10:57:24;4.18;;;2.13;;
17662;SDS011;8950;56.892;15.090;2023-02-20T10:59:53;4.22;;;2.40;;
17662;SDS011;8950;56.892;15.090;2023-02-20T11:02:24;4.80;;;2.20;;
17662;SDS011;8950;56.892;15.090;2023-02-20T11:04:53;4.03;;;2.33;;
17662;SDS011;8950;56.892;15.090;2023-02-20T11:07:20;5.07;;;2.50;;
17662;SDS011;8950;56.892;15.090;2023-02-20T11:09:47;5.32;;;2.80;;
17662;SDS011;8950;56.892;15.090;2023-02-20T11:12:18;5.28;;;2.67;;
17662;SDS011;8950;56.892;15.090;2023-02-20T11:14:48;4.50;;;2.85;;
17662;SDS011;8950;56.892;15.090;2023-02-20T11:17:17;4.25;;;2.35;;
17662;SDS011;8950;56.892;15.090;2023-02-20T11:19:45;6.13;;;2.50;;
17662;SDS011;8950;56.892;15.090;2023-02-20T11:22:12;5.88;;;2.55;;
17662;SDS011;8950;56.892;15.090;2023-02-20T11:24:38;6.22;;;2.53;;
17662;SDS011;8950;56.892;15.090;2023-02-20T11:27:06;7.03;;;2.95;;
17662;SDS011;8950;56.892;15.090;2023-02-20T11:29:36;7.43;;;3.53;;
17662;SDS011;8950;56.892;15.090;2023-02-20T11:34:51;7.68;;;2.80;;
17662;SDS011;8950;56.892;15.090;2023-02-20T11:37:27;6.88;;;3.30;;
17662;SDS011;8950;56.892;15.090;2023-02-20T11:39:53;8.38;;;3.35;;
17662;SDS011;8950;56.892;15.090;2023-02-20T11:42:21;9.77;;;3.78;;
17662;SDS011;8950;56.892;15.090;2023-02-20T11:44:50;7.13;;;2.83;;
17662;SDS011;8950;56.892;15.090;2023-02-20T11:47:28;7.53;;;3.33;;
17662;SDS011;8950;56.892;15.090;2023-02-20T11:50:08;8.30;;;3.15;;
17662;SDS011;8950;56.892;15.090;2023-02-20T11:52:35;8.20;;;3.17;;
17662;SDS011;8950;56.892;15.090;2023-02-20T11:55:18;7.10;;;3.25;;
17662;SDS011;8950;56.892;15.090;2023-02-20T11:57:46;7.18;;;3.17;;
17662;SDS011;8950;56.892;15.090;2023-02-20T12:00:14;6.13;;;3.08;;
17662;SDS011;8950;56.892;15.090;2023-02-20T12:02:48;5.13;;;3.03;;
17662;SDS011;8950;56.892;15.090;2023-02-20T12:05:16;7.00;;;3.55;;
17662;SDS011;8950;56.892;15.090;2023-02-20T12:07:43;4.75;;;2.88;;
17662;SDS011;8950;56.892;15.090;2023-02-20T12:13:03;7.43;;;3.08;;
17662;SDS011;8950;56.892;15.090;2023-02-20T12:15:30;8.20;;;3.55;;
17662;SDS011;8950;56.892;15.090;2023-02-20T12:18:05;7.30;;;3.45;;
17662;SDS011;8950;56.892;15.090;2023-02-20T12:20:37;8.70;;;3.63;;
17662;SDS011;8950;56.892;15.090;2023-02-20T12:23:09;9.20;;;3.08;;
17662;SDS011;8950;56.892;15.090;2023-02-20T12:25:42;6.43;;;2.78;;
17662;SDS011;8950;56.892;15.090;2023-02-20T12:28:15;7.25;;;3.10;;
17662;SDS011;8950;56.892;15.090;2023-02-20T12:30:49;6.38;;;3.30;;
17662;SDS011;8950;56.892;15.090;2023-02-20T12:33:24;7.30;;;3.92;;
17662;SDS011;8950;56.892;15.090;2023-02-20T12:36:02;8.57;;;3.33;;
17662;SDS011;8950;56.892;15.090;2023-02-20T12:38:32;7.03;;;2.97;;
17662;SDS011;8950;56.892;15.090;2023-02-20T12:43:54;9.60;;;3.13;;
17662;SDS011;8950;56.892;15.090;2023-02-20T12:46:27;10.43;;;4.00;;
17662;SDS011;8950;56.892;15.090;2023-02-20T12:49:04;8.15;;;3.88;;
17662;SDS011;8950;56.892;15.090;2023-02-20T12:51:37;6.85;;;3.53;;
17662;SDS011;8950;56.892;15.090;2023-02-20T12:54:12;7.68;;;3.45;;
17662;SDS011;8950;56.892;15.090;2023-02-20T12:59:25;8.55;;;3.90;;
17662;SDS011;8950;56.892;15.090;2023-02-20T13:01:53;7.93;;;2.97;;
17662;SDS011;8950;56.892;15.090;2023-02-20T13:04:22;6.20;;;3.15;;
17662;SDS011;8950;56.892;15.090;2023-02-20T13:06:52;6.68;;;3.22;;
17662;SDS011;8950;56.892;15.090;2023-02-20T13:09:22;8.52;;;3.72;;
17662;SDS011;8950;56.892;15.090;2023-02-20T13:11:50;12.57;;;3.78;;
17662;SDS011;8950;56.892;15.090;2023-02-20T13:14:22;7.57;;;3.60;;
17662;SDS011;8950;56.892;15.090;2023-02-20T13:16:53;10.98;;;4.13;;
17662;SDS011;8950;56.892;15.090;2023-02-20T13:19:22;10.20;;;3.97;;
17662;SDS011;8950;56.892;15.090;2023-02-20T13:21:52;9.55;;;3.92;;
17662;SDS011;8950;56.892;15.090;2023-02-20T13:24:26;9.57;;;3.72;;
17662;SDS011;8950;56.892;15.090;2023-02-20T13:26:52;9.20;;;3.50;;
17662;SDS011;8950;56.892;15.090;2023-02-20T13:29:20;9.70;;;4.55;;
17662;SDS011;8950;56.892;15.090;2023-02-20T13:31:49;13.05;;;4.40;;
17662;SDS011;8950;56.892;15.090;2023-02-20T13:34:24;10.15;;;4.00;;
17662;SDS011;8950;56.892;15.090;2023-02-20T13:36:52;9.50;;;4.03;;
17662;SDS011;8950;56.892;15.090;2023-02-20T13:42:29;11.82;;;4.50;;
17662;SDS011;8950;56.892;15.090;2023-02-20T13:44:55;9.45;;;3.60;;
17662;SDS011;8950;56.892;15.090;2023-02-20T13:47:28;10.07;;;4.43;;
17662;SDS011;8950;56.892;15.090;2023-02-20T13:49:55;10.25;;;4.45;;
17662;SDS011;8950;56.892;15.090;2023-02-20T13:52:35;10.20;;;3.50;;
17662;SDS011;8950;56.892;15.090;2023-02-20T13:55:04;10.38;;;4.10;;
17662;SDS011;8950;56.892;15.090;2023-02-20T13:57:42;14.38;;;4.47;;
17662;SDS011;8950;56.892;15.090;2023-02-20T14:00:14;10.75;;;3.83;;
17662;SDS011;8950;56.892;15.090;2023-02-20T14:02:43;10.20;;;4.72;;
17662;SDS011;8950;56.892;15.090;2023-02-20T14:05:16;9.35;;;3.92;;
17662;SDS011;8950;56.892;15.090;2023-02-20T14:07:44;12.98;;;4.47;;
17662;SDS011;8950;56.892;15.090;2023-02-20T14:10:13;7.43;;;3.00;;
17662;SDS011;8950;56.892;15.090;2023-02-20T14:12:40;9.55;;;3.63;;
17662;SDS011;8950;56.892;15.090;2023-02-20T14:15:07;12.88;;;4.13;;
17662;SDS011;8950;56.892;15.090;2023-02-20T14:17:34;13.57;;;4.45;;
17662;SDS011;8950;56.892;15.090;2023-02-20T14:20:04;9.75;;;4.45;;
17662;SDS011;8950;56.892;15.090;2023-02-20T14:22:32;12.20;;;4.40;;
17662;SDS011;8950;56.892;15.090;2023-02-20T14:25:06;12.73;;;4.45;;
17662;SDS011;8950;56.892;15.090;2023-02-20T14:27:40;13.18;;;4.47;;
17662;SDS011;8950;56.892;15.090;2023-02-20T14:30:07;9.45;;;3.92;;
17662;SDS011;8950;56.892;15.090;2023-02-20T14:32:34;10.43;;;3.78;;
17662;SDS011;8950;56.892;15.090;2023-02-20T14:35:02;11.50;;;4.20;;
17662;SDS011;8950;56.892;15.090;2023-02-20T14:37:33;12.13;;;4.43;;
17662;SDS011;8950;56.892;15.090;2023-02-20T14:40:06;11.68;;;4.90;;
17662;SDS011;8950;56.892;15.090;2023-02-20T14:42:33;16.15;;;5.43;;
17662;SDS011;8950;56.892;15.090;2023-02-20T14:45:03;14.93;;;5.20;;
17662;SDS011;8950;56.892;15.090;2023-02-20T14:47:30;12.38;;;5.10;;
17662;SDS011;8950;56.892;15.090;2023-02-20T14:50:06;11.45;;;5.07;;
17662;SDS011;8950;56.892;15.090;2023-02-20T14:52:33;18.50;;;5.68;;
17662;SDS011;8950;56.892;15.090;2023-02-20T14:55:00;14.88;;;5.90;;
17662;SDS011;8950;56.892;15.090;2023-02-20T14:57:28;12.77;;;4.85;;
17662;SDS011;8950;56.892;15.090;2023-02-20T15:00:10;14.45;;;5.28;;
17662;SDS011;8950;56.892;15.090;2023-02-20T15:02:39;12.63;;;5.32;;
17662;SDS011;8950;56.892;15.090;2023-02-20T15:05:07;17.23;;;5.82;;
17662;SDS011;8950;56.892;15.090;2023-02-20T15:07:34;12.35;;;5.20;;
17662;SDS011;8950;56.892;15.090;2023-02-20T15:10:04;14.88;;;4.95;;
17662;SDS011;8950;56.892;15.090;2023-02-20T15:12:35;9.52;;;4.20;;
17662;SDS011;8950;56.892;15.090;2023-02-20T15:15:03;15.05;;;5.22;;